sensor_id;sensor_type;location;lat;lon;timestamp;P1;durP1;ratioP1;P2;durP2;ratioP2
59938;SDS011;45801;51.810;19.444;2022-10-31T00:01:56;60.60;;;41.80;;
59938;SDS011;45801;51.810;19.444;2022-10-31T00:04:21;67.30;;;47.20;;
59938;SDS011;45801;51.810;19.444;2022-10-31T00:06:47;71.90;;;48.80;;
59938;SDS011;45801;51.810;19.444;2022-10-31T00:09:13;69.70;;;48.60;;
59938;SDS011;45801;51.810;19.444;2022-10-31T00:11:38;72.00;;;49.50;;
59938;SDS011;45801;51.810;19.444;2022-10-31T00:14:04;67.30;;;45.00;;
59938;SDS011;45801;51.810;19.444;2022-10-31T00:16:31;70.20;;;48.50;;
59938;SDS011;45801;51.810;19.444;2022-10-31T00:18:58;62.60;;;42.90;;
59938;SDS011;45801;51.810;19.444;2022-10-31T00:21:26;64.80;;;45.60;;
59938;SDS011;45801;51.810;19.444;2022-10-31T00:23:53;63.80;;;44.10;;
59938;SDS011;45801;51.810;19.444;2022-10-31T00:26:19;65.50;;;48.40;;
59938;SDS011;45801;51.810;19.444;2022-10-31T00:28:45;64.50;;;44.70;;
59938;SDS011;45801;51.810;19.444;2022-10-31T00:31:11;61.40;;;44.30;;
59938;SDS011;45801;51.810;19.444;2022-10-31T00:33:38;59.10;;;42.00;;
59938;SDS011;45801;51.810;19.444;2022-10-31T00:36:05;60.30;;;43.50;;
59938;SDS011;45801;51.810;19.444;2022-10-31T00:38:31;67.20;;;44.40;;
59938;SDS011;45801;51.810;19.444;2022-10-31T00:40:57;59.00;;;44.00;;
59938;SDS011;45801;51.810;19.444;2022-10-31T00:43:24;64.70;;;45.90;;
59938;SDS011;45801;51.810;19.444;2022-10-31T00:45:50;56.80;;;41.50;;
59938;SDS011;45801;51.810;19.444;2022-10-31T00:48:16;57.40;;;41.60;;
59938;SDS011;45801;51.810;19.444;2022-10-31T00:50:42;48.90;;;35.10;;
59938;SDS011;45801;51.810;19.444;2022-10-31T00:53:08;47.10;;;34.80;;
59938;SDS011;45801;51.810;19.444;2022-10-31T00:55:34;38.30;;;31.40;;
59938;SDS011;45801;51.810;19.444;2022-10-31T00:58:00;41.50;;;29.90;;
59938;SDS011;45801;51.810;19.444;2022-10-31T01:04:08;43.20;;;30.20;;
59938;SDS011;45801;51.810;19.444;2022-10-31T01:06:33;37.20;;;28.20;;
59938;SDS011;45801;51.810;19.444;2022-10-31T01:08:59;35.30;;;27.60;;
59938;SDS011;45801;51.810;19.444;2022-10-31T01:11:25;37.40;;;28.40;;
59938;SDS011;45801;51.810;19.444;2022-10-31T01:13:51;38.30;;;28.10;;
59938;SDS011;45801;51.810;19.444;2022-10-31T01:16:18;37.70;;;28.50;;
59938;SDS011;45801;51.810;19.444;2022-10-31T01:18:46;36.40;;;26.90;;
59938;SDS011;45801;51.810;19.444;2022-10-31T01:21:14;37.70;;;30.00;;
59938;SDS011;45801;51.810;19.444;2022-10-31T01:23:42;35.60;;;29.50;;
59938;SDS011;45801;51.810;19.444;2022-10-31T01:26:12;38.80;;;30.50;;
59938;SDS011;45801;51.810;19.444;2022-10-31T01:29:13;33.60;;;28.00;;
59938;SDS011;45801;51.810;19.444;2022-10-31T01:34:03;38.50;;;28.70;;
59938;SDS011;45801;51.810;19.444;2022-10-31T01:36:31;39.30;;;29.50;;
59938;SDS011;45801;51.810;19.444;2022-10-31T01:39:05;39.70;;;30.60;;
59938;SDS011;45801;51.810;19.444;2022-10-31T01:41:34;32.30;;;26.80;;
59938;SDS011;45801;51.810;19.444;2022-10-31T01:46:41;35.70;;;27.40;;
59938;SDS011;45801;51.810;19.444;2022-10-31T01:49:19;40.00;;;30.60;;
59938;SDS011;45801;51.810;19.444;2022-10-31T01:51:53;37.40;;;30.10;;
59938;SDS011;45801;51.810;19.444;2022-10-31T01:54:24;35.60;;;28.10;;
59938;SDS011;45801;51.810;19.444;2022-10-31T01:56:57;37.10;;;29.20;;
59938;SDS011;45801;51.810;19.444;2022-10-31T01:59:24;38.90;;;29.70;;
59938;SDS011;45801;51.810;19.444;2022-10-31T02:01:55;40.00;;;31.60;;
59938;SDS011;45801;51.810;19.444;2022-10-31T02:04:20;48.30;;;34.20;;
59938;SDS011;45801;51.810;19.444;2022-10-31T02:06:50;44.40;;;34.50;;
59938;SDS011;45801;51.810;19.444;2022-10-31T02:09:20;42.80;;;36.10;;
59938;SDS011;45801;51.810;19.444;2022-10-31T02:11:50;44.90;;;34.60;;
59938;SDS011;45801;51.810;19.444;2022-10-31T02:14:17;45.40;;;33.80;;
59938;SDS011;45801;51.810;19.444;2022-10-31T02:16:45;43.40;;;32.50;;
59938;SDS011;45801;51.810;19.444;2022-10-31T02:19:11;40.40;;;32.10;;
59938;SDS011;45801;51.810;19.444;2022-10-31T02:21:45;41.50;;;32.70;;
59938;SDS011;45801;51.810;19.444;2022-10-31T02:27:06;37.60;;;30.40;;
59938;SDS011;45801;51.810;19.444;2022-10-31T02:37:59;38.40;;;29.70;;
59938;SDS011;45801;51.810;19.444;2022-10-31T02:40:49;35.10;;;28.20;;
59938;SDS011;45801;51.810;19.444;2022-10-31T02:46:03;32.30;;;26.50;;
59938;SDS011;45801;51.810;19.444;2022-10-31T02:48:36;37.20;;;26.80;;
59938;SDS011;45801;51.810;19.444;2022-10-31T02:51:04;34.60;;;26.50;;
59938;SDS011;45801;51.810;19.444;2022-10-31T02:53:32;31.90;;;25.10;;
59938;SDS011;45801;51.810;19.444;2022-10-31T02:58:31;30.50;;;24.00;;
59938;SDS011;45801;51.810;19.444;2022-10-31T03:06:20;28.40;;;22.90;;
59938;SDS011;45801;51.810;19.444;2022-10-31T03:11:28;31.90;;;24.30;;
59938;SDS011;45801;51.810;19.444;2022-10-31T03:14:08;29.50;;;23.20;;
59938;SDS011;45801;51.810;19.444;2022-10-31T03:16:45;29.10;;;23.70;;
59938;SDS011;45801;51.810;19.444;2022-10-31T03:19:18;34.20;;;24.50;;
59938;SDS011;45801;51.810;19.444;2022-10-31T03:21:53;32.00;;;24.60;;
59938;SDS011;45801;51.810;19.444;2022-10-31T03:24:24;31.00;;;23.90;;
59938;SDS011;45801;51.810;19.444;2022-10-31T03:26:54;32.80;;;24.30;;
59938;SDS011;45801;51.810;19.444;2022-10-31T03:29:24;30.20;;;23.20;;
59938;SDS011;45801;51.810;19.444;2022-10-31T03:31:54;30.30;;;22.70;;
59938;SDS011;45801;51.810;19.444;2022-10-31T03:34:34;28.00;;;21.00;;
59938;SDS011;45801;51.810;19.444;2022-10-31T03:37:03;26.50;;;20.70;;
59938;SDS011;45801;51.810;19.444;2022-10-31T03:39:33;28.00;;;22.60;;
59938;SDS011;45801;51.810;19.444;2022-10-31T03:42:05;25.60;;;20.20;;
59938;SDS011;45801;51.810;19.444;2022-10-31T03:44:36;25.80;;;20.50;;
59938;SDS011;45801;51.810;19.444;2022-10-31T03:47:06;25.70;;;20.00;;
59938;SDS011;45801;51.810;19.444;2022-10-31T03:49:32;28.10;;;20.60;;
59938;SDS011;45801;51.810;19.444;2022-10-31T03:52:02;27.90;;;21.20;;
59938;SDS011;45801;51.810;19.444;2022-10-31T03:54:42;29.50;;;21.20;;
59938;SDS011;45801;51.810;19.444;2022-10-31T04:00:00;30.80;;;20.40;;
59938;SDS011;45801;51.810;19.444;2022-10-31T04:02:36;32.60;;;21.70;;
59938;SDS011;45801;51.810;19.444;2022-10-31T04:05:07;36.80;;;21.60;;
59938;SDS011;45801;51.810;19.444;2022-10-31T04:07:36;34.40;;;22.20;;
59938;SDS011;45801;51.810;19.444;2022-10-31T04:10:07;37.20;;;24.40;;
59938;SDS011;45801;51.810;19.444;2022-10-31T04:12:36;35.10;;;24.40;;
59938;SDS011;45801;51.810;19.444;2022-10-31T04:15:04;37.10;;;25.30;;
59938;SDS011;45801;51.810;19.444;2022-10-31T04:17:33;41.10;;;26.50;;
59938;SDS011;45801;51.810;19.444;2022-10-31T04:20:03;41.50;;;26.00;;
59938;SDS011;45801;51.810;19.444;2022-10-31T04:22:29;43.30;;;26.70;;
59938;SDS011;45801;51.810;19.444;2022-10-31T04:24:54;40.50;;;25.70;;
59938;SDS011;45801;51.810;19.444;2022-10-31T04:27:20;35.10;;;24.40;;
59938;SDS011;45801;51.810;19.444;2022-10-31T04:29:46;39.20;;;26.60;;
59938;SDS011;45801;51.810;19.444;2022-10-31T04:32:11;41.50;;;28.30;;
59938;SDS011;45801;51.810;19.444;2022-10-31T04:34:37;40.10;;;27.20;;
59938;SDS011;45801;51.810;19.444;2022-10-31T04:37:03;37.70;;;25.90;;
59938;SDS011;45801;51.810;19.444;2022-10-31T04:39:28;35.60;;;25.20;;
59938;SDS011;45801;51.810;19.444;2022-10-31T04:41:54;43.40;;;26.60;;
59938;SDS011;45801;51.810;19.444;2022-10-31T04:44:20;38.00;;;26.50;;
59938;SDS011;45801;51.810;19.444;2022-10-31T04:46:45;38.10;;;25.20;;
59938;SDS011;45801;51.810;19.444;2022-10-31T04:49:11;36.80;;;25.30;;
59938;SDS011;45801;51.810;19.444;2022-10-31T04:51:37;35.60;;;26.10;;
59938;SDS011;45801;51.810;19.444;2022-10-31T04:54:03;37.30;;;24.70;;
59938;SDS011;45801;51.810;19.444;2022-10-31T04:56:29;37.30;;;24.40;;
59938;SDS011;45801;51.810;19.444;2022-10-31T04:58:54;35.30;;;25.90;;
59938;SDS011;45801;51.810;19.444;2022-10-31T05:01:20;37.00;;;25.90;;
59938;SDS011;45801;51.810;19.444;2022-10-31T05:03:46;35.60;;;26.20;;
59938;SDS011;45801;51.810;19.444;2022-10-31T05:06:11;33.50;;;24.70;;
59938;SDS011;45801;51.810;19.444;2022-10-31T05:08:37;36.30;;;24.90;;
59938;SDS011;45801;51.810;19.444;2022-10-31T05:11:03;33.00;;;24.20;;
59938;SDS011;45801;51.810;19.444;2022-10-31T05:13:29;34.30;;;23.20;;
59938;SDS011;45801;51.810;19.444;2022-10-31T05:15:56;31.70;;;23.40;;
59938;SDS011;45801;51.810;19.444;2022-10-31T05:18:22;34.90;;;24.30;;
59938;SDS011;45801;51.810;19.444;2022-10-31T05:20:48;35.60;;;26.10;;
59938;SDS011;45801;51.810;19.444;2022-10-31T05:23:14;34.50;;;24.90;;
59938;SDS011;45801;51.810;19.444;2022-10-31T05:25:40;33.00;;;24.90;;
59938;SDS011;45801;51.810;19.444;2022-10-31T05:28:07;31.70;;;23.50;;
59938;SDS011;45801;51.810;19.444;2022-10-31T05:30:33;32.20;;;23.60;;
59938;SDS011;45801;51.810;19.444;2022-10-31T05:32:59;32.40;;;23.60;;
59938;SDS011;45801;51.810;19.444;2022-10-31T05:35:26;31.40;;;22.20;;
59938;SDS011;45801;51.810;19.444;2022-10-31T05:37:54;31.10;;;23.20;;
59938;SDS011;45801;51.810;19.444;2022-10-31T05:40:20;33.50;;;23.50;;
59938;SDS011;45801;51.810;19.444;2022-10-31T05:42:47;27.60;;;20.70;;
59938;SDS011;45801;51.810;19.444;2022-10-31T05:45:15;24.60;;;20.50;;
59938;SDS011;45801;51.810;19.444;2022-10-31T05:47:49;27.00;;;21.50;;
59938;SDS011;45801;51.810;19.444;2022-10-31T05:50:24;28.60;;;21.90;;
59938;SDS011;45801;51.810;19.444;2022-10-31T05:52:55;28.40;;;21.60;;
59938;SDS011;45801;51.810;19.444;2022-10-31T05:55:22;29.50;;;22.80;;
59938;SDS011;45801;51.810;19.444;2022-10-31T05:57:49;27.70;;;20.40;;
59938;SDS011;45801;51.810;19.444;2022-10-31T06:00:18;29.20;;;21.80;;
59938;SDS011;45801;51.810;19.444;2022-10-31T06:02:44;25.80;;;20.50;;
59938;SDS011;45801;51.810;19.444;2022-10-31T06:05:10;27.60;;;21.00;;
59938;SDS011;45801;51.810;19.444;2022-10-31T06:07:36;25.30;;;20.10;;
59938;SDS011;45801;51.810;19.444;2022-10-31T06:10:03;26.00;;;19.00;;
59938;SDS011;45801;51.810;19.444;2022-10-31T06:12:30;23.60;;;17.10;;
59938;SDS011;45801;51.810;19.444;2022-10-31T06:14:56;24.00;;;17.90;;
59938;SDS011;45801;51.810;19.444;2022-10-31T06:17:22;23.20;;;19.10;;
59938;SDS011;45801;51.810;19.444;2022-10-31T06:19:48;24.40;;;18.70;;
59938;SDS011;45801;51.810;19.444;2022-10-31T06:22:14;20.30;;;17.70;;
59938;SDS011;45801;51.810;19.444;2022-10-31T06:24:39;19.20;;;16.00;;
59938;SDS011;45801;51.810;19.444;2022-10-31T06:27:05;18.60;;;16.20;;
59938;SDS011;45801;51.810;19.444;2022-10-31T06:29:31;19.20;;;15.20;;
59938;SDS011;45801;51.810;19.444;2022-10-31T06:31:57;18.20;;;15.40;;
59938;SDS011;45801;51.810;19.444;2022-10-31T06:34:23;17.50;;;15.70;;
59938;SDS011;45801;51.810;19.444;2022-10-31T06:36:49;18.20;;;14.90;;
59938;SDS011;45801;51.810;19.444;2022-10-31T06:39:14;19.20;;;15.60;;
59938;SDS011;45801;51.810;19.444;2022-10-31T06:41:40;19.70;;;16.50;;
59938;SDS011;45801;51.810;19.444;2022-10-31T06:44:06;19.70;;;16.30;;
59938;SDS011;45801;51.810;19.444;2022-10-31T06:46:33;21.10;;;16.70;;
59938;SDS011;45801;51.810;19.444;2022-10-31T06:48:59;18.80;;;15.10;;
59938;SDS011;45801;51.810;19.444;2022-10-31T06:51:25;19.50;;;17.40;;
59938;SDS011;45801;51.810;19.444;2022-10-31T06:53:50;20.80;;;15.80;;
59938;SDS011;45801;51.810;19.444;2022-10-31T06:56:16;19.30;;;16.10;;
59938;SDS011;45801;51.810;19.444;2022-10-31T06:58:42;21.20;;;17.50;;
59938;SDS011;45801;51.810;19.444;2022-10-31T07:01:08;21.40;;;17.80;;
59938;SDS011;45801;51.810;19.444;2022-10-31T07:03:33;21.30;;;18.20;;
59938;SDS011;45801;51.810;19.444;2022-10-31T07:05:59;20.00;;;17.00;;
59938;SDS011;45801;51.810;19.444;2022-10-31T07:08:25;22.50;;;17.60;;
59938;SDS011;45801;51.810;19.444;2022-10-31T07:10:51;20.80;;;17.10;;
59938;SDS011;45801;51.810;19.444;2022-10-31T07:13:18;19.40;;;16.60;;
59938;SDS011;45801;51.810;19.444;2022-10-31T07:15:50;21.00;;;17.70;;
59938;SDS011;45801;51.810;19.444;2022-10-31T07:18:16;21.80;;;17.90;;
59938;SDS011;45801;51.810;19.444;2022-10-31T07:20:41;19.30;;;16.90;;
59938;SDS011;45801;51.810;19.444;2022-10-31T07:23:08;19.40;;;16.80;;
59938;SDS011;45801;51.810;19.444;2022-10-31T07:25:36;21.00;;;17.50;;
59938;SDS011;45801;51.810;19.444;2022-10-31T07:28:03;20.90;;;18.30;;
59938;SDS011;45801;51.810;19.444;2022-10-31T07:30:29;22.60;;;19.00;;
59938;SDS011;45801;51.810;19.444;2022-10-31T07:32:55;20.50;;;18.20;;
59938;SDS011;45801;51.810;19.444;2022-10-31T07:35:22;21.20;;;17.10;;
59938;SDS011;45801;51.810;19.444;2022-10-31T07:37:49;19.10;;;17.10;;
59938;SDS011;45801;51.810;19.444;2022-10-31T07:40:16;19.50;;;16.40;;
59938;SDS011;45801;51.810;19.444;2022-10-31T07:42:44;20.90;;;16.80;;
59938;SDS011;45801;51.810;19.444;2022-10-31T07:45:12;21.00;;;18.70;;
59938;SDS011;45801;51.810;19.444;2022-10-31T07:47:40;21.40;;;18.30;;
59938;SDS011;45801;51.810;19.444;2022-10-31T07:50:14;23.20;;;18.70;;
59938;SDS011;45801;51.810;19.444;2022-10-31T07:52:42;20.10;;;17.90;;
59938;SDS011;45801;51.810;19.444;2022-10-31T07:55:08;19.70;;;17.50;;
59938;SDS011;45801;51.810;19.444;2022-10-31T07:57:34;24.00;;;19.50;;
59938;SDS011;45801;51.810;19.444;2022-10-31T08:00:03;21.90;;;18.70;;
59938;SDS011;45801;51.810;19.444;2022-10-31T08:02:33;21.80;;;19.40;;
59938;SDS011;45801;51.810;19.444;2022-10-31T08:04:59;24.10;;;19.50;;
59938;SDS011;45801;51.810;19.444;2022-10-31T08:07:25;22.10;;;19.00;;
59938;SDS011;45801;51.810;19.444;2022-10-31T08:09:51;23.90;;;20.00;;
59938;SDS011;45801;51.810;19.444;2022-10-31T08:12:17;22.30;;;19.70;;
59938;SDS011;45801;51.810;19.444;2022-10-31T08:14:43;19.90;;;17.70;;
59938;SDS011;45801;51.810;19.444;2022-10-31T08:17:09;22.50;;;19.90;;
59938;SDS011;45801;51.810;19.444;2022-10-31T08:19:35;22.10;;;19.00;;
59938;SDS011;45801;51.810;19.444;2022-10-31T08:22:01;24.30;;;20.00;;
59938;SDS011;45801;51.810;19.444;2022-10-31T08:24:27;24.20;;;20.00;;
59938;SDS011;45801;51.810;19.444;2022-10-31T08:26:53;24.10;;;20.00;;
59938;SDS011;45801;51.810;19.444;2022-10-31T08:29:18;22.60;;;19.80;;
59938;SDS011;45801;51.810;19.444;2022-10-31T08:31:44;25.40;;;21.60;;
59938;SDS011;45801;51.810;19.444;2022-10-31T08:34:10;25.50;;;22.50;;
59938;SDS011;45801;51.810;19.444;2022-10-31T08:36:35;24.60;;;20.40;;
59938;SDS011;45801;51.810;19.444;2022-10-31T08:39:01;23.30;;;20.50;;
59938;SDS011;45801;51.810;19.444;2022-10-31T08:41:27;25.40;;;21.30;;
59938;SDS011;45801;51.810;19.444;2022-10-31T08:43:53;24.70;;;19.80;;
59938;SDS011;45801;51.810;19.444;2022-10-31T08:46:19;23.70;;;18.90;;
59938;SDS011;45801;51.810;19.444;2022-10-31T08:48:47;24.50;;;21.20;;
59938;SDS011;45801;51.810;19.444;2022-10-31T08:51:13;24.80;;;20.40;;
59938;SDS011;45801;51.810;19.444;2022-10-31T08:53:39;26.30;;;22.20;;
59938;SDS011;45801;51.810;19.444;2022-10-31T08:56:04;26.30;;;23.00;;
59938;SDS011;45801;51.810;19.444;2022-10-31T08:58:30;27.40;;;22.50;;
59938;SDS011;45801;51.810;19.444;2022-10-31T09:03:47;27.70;;;21.80;;
59938;SDS011;45801;51.810;19.444;2022-10-31T09:06:13;26.30;;;21.50;;
59938;SDS011;45801;51.810;19.444;2022-10-31T09:08:38;24.10;;;20.00;;
59938;SDS011;45801;51.810;19.444;2022-10-31T09:11:04;29.70;;;22.10;;
59938;SDS011;45801;51.810;19.444;2022-10-31T09:13:31;27.00;;;22.30;;
59938;SDS011;45801;51.810;19.444;2022-10-31T09:15:57;26.80;;;22.20;;
59938;SDS011;45801;51.810;19.444;2022-10-31T09:18:26;28.10;;;21.70;;
59938;SDS011;45801;51.810;19.444;2022-10-31T09:20:58;27.60;;;22.20;;
59938;SDS011;45801;51.810;19.444;2022-10-31T09:23:24;27.30;;;22.10;;
59938;SDS011;45801;51.810;19.444;2022-10-31T09:25:50;29.80;;;22.50;;
59938;SDS011;45801;51.810;19.444;2022-10-31T09:28:19;27.30;;;21.50;;
59938;SDS011;45801;51.810;19.444;2022-10-31T09:30:48;28.20;;;22.50;;
59938;SDS011;45801;51.810;19.444;2022-10-31T09:33:15;31.10;;;23.60;;
59938;SDS011;45801;51.810;19.444;2022-10-31T09:35:42;32.50;;;24.10;;
59938;SDS011;45801;51.810;19.444;2022-10-31T09:38:11;29.30;;;21.30;;
59938;SDS011;45801;51.810;19.444;2022-10-31T09:40:44;30.30;;;24.20;;
59938;SDS011;45801;51.810;19.444;2022-10-31T09:45:48;31.10;;;23.50;;
59938;SDS011;45801;51.810;19.444;2022-10-31T09:48:24;30.80;;;22.70;;
59938;SDS011;45801;51.810;19.444;2022-10-31T09:50:54;29.50;;;22.80;;
59938;SDS011;45801;51.810;19.444;2022-10-31T09:53:39;32.90;;;24.20;;
59938;SDS011;45801;51.810;19.444;2022-10-31T09:56:11;32.00;;;22.10;;
59938;SDS011;45801;51.810;19.444;2022-10-31T09:58:42;32.10;;;23.50;;
59938;SDS011;45801;51.810;19.444;2022-10-31T10:01:25;27.90;;;21.20;;
59938;SDS011;45801;51.810;19.444;2022-10-31T10:03:59;32.40;;;23.40;;
59938;SDS011;45801;51.810;19.444;2022-10-31T10:06:32;27.70;;;21.40;;
59938;SDS011;45801;51.810;19.444;2022-10-31T10:09:04;32.00;;;24.20;;
59938;SDS011;45801;51.810;19.444;2022-10-31T10:11:32;31.70;;;24.00;;
59938;SDS011;45801;51.810;19.444;2022-10-31T10:17:38;29.40;;;23.00;;
59938;SDS011;45801;51.810;19.444;2022-10-31T10:20:25;32.60;;;23.30;;
59938;SDS011;45801;51.810;19.444;2022-10-31T10:25:34;20.70;;;13.60;;
59938;SDS011;45801;51.810;19.444;2022-10-31T10:28:19;25.60;;;17.70;;
59938;SDS011;45801;51.810;19.444;2022-10-31T10:30:50;31.10;;;22.40;;
59938;SDS011;45801;51.810;19.444;2022-10-31T10:33:47;25.60;;;16.20;;
59938;SDS011;45801;51.810;19.444;2022-10-31T10:36:20;23.60;;;17.30;;
59938;SDS011;45801;51.810;19.444;2022-10-31T10:38:57;35.00;;;23.50;;
59938;SDS011;45801;51.810;19.444;2022-10-31T10:41:32;31.60;;;24.10;;
59938;SDS011;45801;51.810;19.444;2022-10-31T10:43:58;34.00;;;23.50;;
59938;SDS011;45801;51.810;19.444;2022-10-31T10:46:26;34.80;;;24.30;;
59938;SDS011;45801;51.810;19.444;2022-10-31T10:52:04;35.60;;;23.90;;
59938;SDS011;45801;51.810;19.444;2022-10-31T10:59:45;35.60;;;24.30;;
59938;SDS011;45801;51.810;19.444;2022-10-31T11:02:19;31.90;;;24.50;;
59938;SDS011;45801;51.810;19.444;2022-10-31T11:04:49;37.40;;;26.40;;
59938;SDS011;45801;51.810;19.444;2022-10-31T11:07:20;34.30;;;24.80;;
59938;SDS011;45801;51.810;19.444;2022-10-31T11:09:46;36.60;;;25.30;;
59938;SDS011;45801;51.810;19.444;2022-10-31T11:12:22;35.80;;;26.10;;
59938;SDS011;45801;51.810;19.444;2022-10-31T11:14:54;34.60;;;26.20;;
59938;SDS011;45801;51.810;19.444;2022-10-31T11:17:30;34.60;;;25.00;;
59938;SDS011;45801;51.810;19.444;2022-10-31T11:19:59;39.00;;;24.80;;
59938;SDS011;45801;51.810;19.444;2022-10-31T11:22:30;33.50;;;25.70;;
59938;SDS011;45801;51.810;19.444;2022-10-31T11:24:56;43.10;;;28.60;;
59938;SDS011;45801;51.810;19.444;2022-10-31T11:27:23;34.80;;;25.60;;
59938;SDS011;45801;51.810;19.444;2022-10-31T11:29:50;34.10;;;24.90;;
59938;SDS011;45801;51.810;19.444;2022-10-31T11:32:20;34.40;;;25.00;;
59938;SDS011;45801;51.810;19.444;2022-10-31T11:34:49;36.40;;;25.90;;
59938;SDS011;45801;51.810;19.444;2022-10-31T11:37:23;36.60;;;25.50;;
59938;SDS011;45801;51.810;19.444;2022-10-31T11:39:56;37.50;;;25.80;;
59938;SDS011;45801;51.810;19.444;2022-10-31T11:42:26;36.40;;;26.20;;
59938;SDS011;45801;51.810;19.444;2022-10-31T11:44:55;39.80;;;26.60;;
59938;SDS011;45801;51.810;19.444;2022-10-31T11:47:28;34.20;;;26.50;;
59938;SDS011;45801;51.810;19.444;2022-10-31T11:49:57;37.50;;;25.30;;
59938;SDS011;45801;51.810;19.444;2022-10-31T11:52:28;37.90;;;27.90;;
59938;SDS011;45801;51.810;19.444;2022-10-31T11:54:58;37.50;;;26.20;;
59938;SDS011;45801;51.810;19.444;2022-10-31T11:57:28;38.20;;;26.70;;
59938;SDS011;45801;51.810;19.444;2022-10-31T11:59:57;35.50;;;26.50;;
59938;SDS011;45801;51.810;19.444;2022-10-31T12:07:36;39.90;;;26.70;;
59938;SDS011;45801;51.810;19.444;2022-10-31T12:10:05;38.50;;;27.40;;
59938;SDS011;45801;51.810;19.444;2022-10-31T12:18:03;40.50;;;24.00;;
59938;SDS011;45801;51.810;19.444;2022-10-31T12:20:49;39.80;;;24.00;;
59938;SDS011;45801;51.810;19.444;2022-10-31T12:23:34;37.60;;;27.10;;
59938;SDS011;45801;51.810;19.444;2022-10-31T12:39:40;33.00;;;23.10;;
59938;SDS011;45801;51.810;19.444;2022-10-31T12:42:11;33.30;;;22.80;;
59938;SDS011;45801;51.810;19.444;2022-10-31T12:52:33;26.60;;;19.00;;
59938;SDS011;45801;51.810;19.444;2022-10-31T12:55:36;27.60;;;20.70;;
59938;SDS011;45801;51.810;19.444;2022-10-31T12:58:10;28.40;;;20.80;;
59938;SDS011;45801;51.810;19.444;2022-10-31T13:00:44;26.00;;;19.20;;
59938;SDS011;45801;51.810;19.444;2022-10-31T13:03:25;26.50;;;18.00;;
59938;SDS011;45801;51.810;19.444;2022-10-31T13:06:03;25.70;;;19.60;;
59938;SDS011;45801;51.810;19.444;2022-10-31T13:08:38;29.50;;;19.30;;
59938;SDS011;45801;51.810;19.444;2022-10-31T13:11:10;26.30;;;19.60;;
59938;SDS011;45801;51.810;19.444;2022-10-31T13:13:43;29.30;;;19.40;;
59938;SDS011;45801;51.810;19.444;2022-10-31T13:16:22;25.40;;;19.00;;
59938;SDS011;45801;51.810;19.444;2022-10-31T13:19:04;27.20;;;17.90;;
59938;SDS011;45801;51.810;19.444;2022-10-31T13:21:39;32.30;;;20.50;;
59938;SDS011;45801;51.810;19.444;2022-10-31T13:24:14;26.30;;;18.90;;
59938;SDS011;45801;51.810;19.444;2022-10-31T13:26:50;30.80;;;20.50;;
59938;SDS011;45801;51.810;19.444;2022-10-31T13:29:32;27.40;;;20.30;;
59938;SDS011;45801;51.810;19.444;2022-10-31T13:32:04;30.00;;;19.80;;
59938;SDS011;45801;51.810;19.444;2022-10-31T13:34:35;29.70;;;21.40;;
59938;SDS011;45801;51.810;19.444;2022-10-31T13:37:07;28.50;;;20.00;;
59938;SDS011;45801;51.810;19.444;2022-10-31T13:45:23;28.50;;;18.40;;
59938;SDS011;45801;51.810;19.444;2022-10-31T13:47:58;29.20;;;18.60;;
59938;SDS011;45801;51.810;19.444;2022-10-31T13:50:27;29.60;;;20.70;;
59938;SDS011;45801;51.810;19.444;2022-10-31T13:55:46;38.30;;;34.00;;
59938;SDS011;45801;51.810;19.444;2022-10-31T13:58:27;49.80;;;44.80;;
59938;SDS011;45801;51.810;19.444;2022-10-31T14:00:59;27.10;;;20.60;;
59938;SDS011;45801;51.810;19.444;2022-10-31T14:03:30;39.40;;;33.10;;
59938;SDS011;45801;51.810;19.444;2022-10-31T14:05:58;32.50;;;26.60;;
59938;SDS011;45801;51.810;19.444;2022-10-31T14:08:24;37.70;;;33.30;;
59938;SDS011;45801;51.810;19.444;2022-10-31T14:10:51;33.40;;;24.10;;
59938;SDS011;45801;51.810;19.444;2022-10-31T14:13:35;28.60;;;22.50;;
59938;SDS011;45801;51.810;19.444;2022-10-31T14:16:04;28.40;;;24.60;;
59938;SDS011;45801;51.810;19.444;2022-10-31T14:18:44;30.10;;;19.50;;
59938;SDS011;45801;51.810;19.444;2022-10-31T14:23:49;28.10;;;19.10;;
59938;SDS011;45801;51.810;19.444;2022-10-31T14:28:49;32.30;;;20.00;;
59938;SDS011;45801;51.810;19.444;2022-10-31T14:31:51;25.30;;;18.50;;
59938;SDS011;45801;51.810;19.444;2022-10-31T14:34:23;29.50;;;18.50;;
59938;SDS011;45801;51.810;19.444;2022-10-31T14:37:15;26.30;;;18.40;;
59938;SDS011;45801;51.810;19.444;2022-10-31T14:43:05;27.30;;;18.40;;
59938;SDS011;45801;51.810;19.444;2022-10-31T14:46:01;27.70;;;18.90;;
59938;SDS011;45801;51.810;19.444;2022-10-31T14:48:36;30.40;;;18.00;;
59938;SDS011;45801;51.810;19.444;2022-10-31T14:51:25;35.30;;;20.20;;
59938;SDS011;45801;51.810;19.444;2022-10-31T14:53:59;29.50;;;16.80;;
59938;SDS011;45801;51.810;19.444;2022-10-31T14:56:26;27.00;;;17.80;;
59938;SDS011;45801;51.810;19.444;2022-10-31T14:58:55;28.50;;;16.80;;
59938;SDS011;45801;51.810;19.444;2022-10-31T15:03:58;24.70;;;16.80;;
59938;SDS011;45801;51.810;19.444;2022-10-31T15:06:30;33.40;;;19.10;;
59938;SDS011;45801;51.810;19.444;2022-10-31T15:09:04;27.50;;;18.10;;
59938;SDS011;45801;51.810;19.444;2022-10-31T15:11:35;25.00;;;16.30;;
59938;SDS011;45801;51.810;19.444;2022-10-31T15:14:17;26.60;;;19.00;;
59938;SDS011;45801;51.810;19.444;2022-10-31T15:16:52;25.10;;;17.90;;
59938;SDS011;45801;51.810;19.444;2022-10-31T15:19:21;29.10;;;19.50;;
59938;SDS011;45801;51.810;19.444;2022-10-31T15:21:50;27.40;;;20.70;;
59938;SDS011;45801;51.810;19.444;2022-10-31T15:24:18;26.40;;;19.30;;
59938;SDS011;45801;51.810;19.444;2022-10-31T15:26:47;27.70;;;19.30;;
59938;SDS011;45801;51.810;19.444;2022-10-31T15:29:17;31.10;;;21.30;;
59938;SDS011;45801;51.810;19.444;2022-10-31T15:31:51;29.00;;;20.70;;
59938;SDS011;45801;51.810;19.444;2022-10-31T15:34:29;23.50;;;15.00;;
59938;SDS011;45801;51.810;19.444;2022-10-31T15:37:03;33.00;;;24.80;;
59938;SDS011;45801;51.810;19.444;2022-10-31T15:39:29;31.30;;;17.70;;
59938;SDS011;45801;51.810;19.444;2022-10-31T15:41:56;35.00;;;24.30;;
59938;SDS011;45801;51.810;19.444;2022-10-31T15:44:28;34.50;;;26.10;;
59938;SDS011;45801;51.810;19.444;2022-10-31T15:49:55;35.40;;;24.70;;
59938;SDS011;45801;51.810;19.444;2022-10-31T15:54:51;31.50;;;23.70;;
59938;SDS011;45801;51.810;19.444;2022-10-31T15:57:23;33.50;;;24.10;;
59938;SDS011;45801;51.810;19.444;2022-10-31T15:59:51;32.40;;;22.00;;
59938;SDS011;45801;51.810;19.444;2022-10-31T16:02:19;26.40;;;21.70;;
59938;SDS011;45801;51.810;19.444;2022-10-31T16:07:24;33.60;;;20.90;;
59938;SDS011;45801;51.810;19.444;2022-10-31T16:12:25;33.70;;;20.90;;
59938;SDS011;45801;51.810;19.444;2022-10-31T16:15:13;33.50;;;22.80;;
59938;SDS011;45801;51.810;19.444;2022-10-31T16:17:40;34.40;;;22.20;;
59938;SDS011;45801;51.810;19.444;2022-10-31T16:20:21;32.60;;;23.60;;
59938;SDS011;45801;51.810;19.444;2022-10-31T16:22:51;35.20;;;23.60;;